ΕΜΥ, Εθνική Μετεωρολογική Υπηρεσία - Δελτία Καιρού, Προγνώσεις

ΑΕΡΟΝΑΥΤΙΛΙΑ

GREEK AIRPORTS CODES

LGAV 031620Z VRB02KT 9999 FEW025 SCT070 13/07 Q1017 RMK NOSIG=

EUROPEAN AIRPORTS CODES

TAF LGAV 031100Z 0312/0412 08008KT 9999 FEW020 BKN070 BECMG 0322/0324 SCT025 BKN070 BECMG 0406/0408 14012KT PROB40 TEMPO 0323/0412 5000 RA FEW018TCU BKN020 PROB30 TEMPO 0400/0412 3000 TSRA SCT012 FEW018CB BKN020=